DAL327 KSNA-KATL
Flight info
| Callsign | DAL327 |
|---|---|
| Flight time | N/A |
| Altitude | 33000 |
| Route | PIGGN3 AVRRY EED J6 DRK KA36U KA36W KK36A/N0443F350 KK36C OKM MEMFS HUTCC KNSAW RUSSA GLAVN2 |
| Aircraft | A321/M-SDE3FGHIRWY/LB1 |
Departure
| Time | 2026-04-30 19:06 |
|---|---|
| Airport | John Wayne Orange County International Airport (KSNA) |
Arrival
| Time | N/A |
|---|---|
| Airport | Hartsfield Jackson Atlanta International Airport (KATL) |
| Time | Latitude | Longitude | Altitude | Speed | Heading |
|---|---|---|---|---|---|
| 2026-04-30 18:11 | 33.68006 | -117.86190 | 66 ft | 0 kts | 106° |
| 2026-04-30 18:54 | 33.68006 | -117.86191 | 66 ft | 2 kts | 106° |
| 2026-04-30 19:01 | 33.68007 | -117.86194 | 66 ft | 3 kts | 105° |
| 2026-04-30 19:02 | 33.68021 | -117.86244 | 66 ft | 4 kts | 153° |
| 2026-04-30 19:02 | 33.68063 | -117.86237 | 66 ft | 1 kts | 207° |
| 2026-04-30 19:03 | 33.68066 | -117.86236 | 66 ft | 0 kts | 207° |
| 2026-04-30 19:04 | 33.68065 | -117.86236 | 66 ft | 1 kts | 207° |
| 2026-04-30 19:04 | 33.68048 | -117.86266 | 66 ft | 4 kts | 264° |
| 2026-04-30 19:05 | 33.68081 | -117.86347 | 66 ft | 7 kts | 298° |
| 2026-04-30 19:05 | 33.68141 | -117.86480 | 66 ft | 10 kts | 293° |
| 2026-04-30 19:06 | 33.67809 | -117.86735 | 67 ft | 89 kts | 208° |
| 2026-04-30 19:06 | 33.67030 | -117.87225 | 68 ft | 161 kts | 207° |
| 2026-04-30 19:06 | 33.64955 | -117.88538 | 1633 ft | 164 kts | 208° |
| 2026-04-30 19:07 | 33.62767 | -117.89930 | 2357 ft | 197 kts | 208° |
| 2026-04-30 19:07 | 33.61430 | -117.90546 | 2696 ft | 215 kts | 191° |
| 2026-04-30 19:08 | 33.58113 | -117.90314 | 3523 ft | 260 kts | 167° |
| 2026-04-30 19:08 | 33.54679 | -117.88643 | 5215 ft | 270 kts | 154° |
| 2026-04-30 19:08 | 33.53038 | -117.87530 | 6113 ft | 273 kts | 144° |
| 2026-04-30 19:09 | 33.50422 | -117.84187 | 7745 ft | 280 kts | 124° |
| 2026-04-30 19:09 | 33.49385 | -117.82192 | 8523 ft | 283 kts | 120° |
| 2026-04-30 19:09 | 33.48494 | -117.80106 | 9268 ft | 286 kts | 111° |
| 2026-04-30 19:10 | 33.47749 | -117.75320 | 10402 ft | 307 kts | 92° |
| 2026-04-30 19:10 | 33.48221 | -117.69941 | 10945 ft | 348 kts | 73° |
| 2026-04-30 19:11 | 33.49091 | -117.67162 | 11379 ft | 363 kts | 65° |
| 2026-04-30 19:11 | 33.51528 | -117.61759 | 12898 ft | 371 kts | 58° |
| 2026-04-30 19:11 | 33.52891 | -117.59114 | 13718 ft | 373 kts | 57° |
| 2026-04-30 19:12 | 33.54269 | -117.56464 | 14451 ft | 377 kts | 57° |
| 2026-04-30 19:12 | 33.55653 | -117.53768 | 15136 ft | 381 kts | 58° |
| 2026-04-30 19:12 | 33.56965 | -117.50981 | 15785 ft | 386 kts | 64° |
| 2026-04-30 19:13 | 33.58458 | -117.44765 | 17040 ft | 396 kts | 83° |
| 2026-04-30 19:13 | 33.58615 | -117.38115 | 18239 ft | 404 kts | 93° |
| 2026-04-30 19:13 | 33.58434 | -117.34726 | 18800 ft | 409 kts | 95° |
| 2026-04-30 19:14 | 33.58203 | -117.31298 | 19351 ft | 414 kts | 95° |
| 2026-04-30 19:14 | 33.57973 | -117.27840 | 19904 ft | 417 kts | 95° |
| 2026-04-30 19:14 | 33.57852 | -117.24343 | 20444 ft | 422 kts | 89° |
| 2026-04-30 19:14 | 33.58083 | -117.20813 | 20933 ft | 427 kts | 82° |
| 2026-04-30 19:15 | 33.58613 | -117.17333 | 21387 ft | 432 kts | 77° |
| 2026-04-30 19:15 | 33.60232 | -117.10291 | 22332 ft | 441 kts | 73° |
| 2026-04-30 19:15 | 33.61145 | -117.06750 | 22782 ft | 445 kts | 73° |
| 2026-04-30 19:16 | 33.62060 | -117.03182 | 23206 ft | 450 kts | 73° |
| 2026-04-30 19:16 | 33.62840 | -116.99519 | 23631 ft | 454 kts | 80° |
| 2026-04-30 19:16 | 33.63337 | -116.91982 | 24428 ft | 460 kts | 93° |
| 2026-04-30 19:17 | 33.63196 | -116.88117 | 24758 ft | 465 kts | 96° |
| 2026-04-30 19:17 | 33.62623 | -116.80326 | 25360 ft | 476 kts | 98° |
| 2026-04-30 19:17 | 33.62336 | -116.76347 | 25692 ft | 480 kts | 97° |
| 2026-04-30 19:18 | 33.61974 | -116.69623 | 26253 ft | 488 kts | 96° |
| 2026-04-30 19:18 | 33.61791 | -116.64141 | 26626 ft | 495 kts | 95° |
| 2026-04-30 19:18 | 33.61693 | -116.59991 | 26881 ft | 500 kts | 95° |
| 2026-04-30 19:19 | 33.61615 | -116.55848 | 27145 ft | 504 kts | 95° |
| 2026-04-30 19:19 | 33.61537 | -116.51613 | 27415 ft | 508 kts | 95° |
| 2026-04-30 19:19 | 33.61356 | -116.43095 | 27952 ft | 515 kts | 95° |
| 2026-04-30 19:20 | 33.61248 | -116.38785 | 28184 ft | 519 kts | 96° |
| 2026-04-30 19:20 | 33.61119 | -116.34435 | 28433 ft | 523 kts | 96° |
| 2026-04-30 19:20 | 33.60862 | -116.25685 | 28916 ft | 530 kts | 96° |
| 2026-04-30 19:21 | 33.60737 | -116.21261 | 29216 ft | 531 kts | 96° |
| 2026-04-30 19:21 | 33.60533 | -116.12318 | 29598 ft | 541 kts | 95° |
| 2026-04-30 19:22 | 33.60664 | -116.03224 | 30087 ft | 549 kts | 86° |
| 2026-04-30 19:22 | 33.63935 | -115.89926 | 30817 ft | 560 kts | 66° |
| 2026-04-30 19:23 | 33.68822 | -115.77381 | 31626 ft | 563 kts | 66° |
| 2026-04-30 19:24 | 33.71882 | -115.68508 | 32173 ft | 563 kts | 71° |
| 2026-04-30 19:24 | 33.73244 | -115.64104 | 32390 ft | 564 kts | 72° |
| 2026-04-30 19:24 | 33.76428 | -115.55531 | 32751 ft | 566 kts | 58° |
| 2026-04-30 19:25 | 33.84430 | -115.45243 | 32897 ft | 559 kts | 33° |
| 2026-04-30 19:26 | 33.96848 | -115.34148 | 32894 ft | 559 kts | 34° |
| 2026-04-30 19:27 | 34.05551 | -115.24901 | 32902 ft | 555 kts | 39° |
| 2026-04-30 19:28 | 34.13075 | -115.16438 | 32896 ft | 553 kts | 38° |
| 2026-04-30 19:29 | 34.24564 | -115.04051 | 32898 ft | 552 kts | 36° |
| 2026-04-30 19:30 | 34.36047 | -114.91764 | 32906 ft | 551 kts | 37° |
| 2026-04-30 19:31 | 34.47421 | -114.79312 | 32882 ft | 550 kts | 37° |
| 2026-04-30 19:31 | 34.55926 | -114.69989 | 32889 ft | 551 kts | 37° |
| 2026-04-30 19:32 | 34.61618 | -114.63762 | 32881 ft | 550 kts | 37° |
| 2026-04-30 19:32 | 34.67329 | -114.57557 | 32886 ft | 549 kts | 36° |
| 2026-04-30 19:33 | 34.72907 | -114.51262 | 32886 ft | 551 kts | 40° |
| 2026-04-30 19:33 | 34.75431 | -114.47720 | 32881 ft | 557 kts | 53° |
| 2026-04-30 19:33 | 34.77304 | -114.43577 | 32877 ft | 561 kts | 69° |
| 2026-04-30 19:34 | 34.78337 | -114.39012 | 32883 ft | 558 kts | 85° |
| 2026-04-30 19:34 | 34.78494 | -114.34339 | 32888 ft | 550 kts | 99° |
| 2026-04-30 19:34 | 34.77248 | -114.25320 | 32888 ft | 542 kts | 110° |
| 2026-04-30 19:35 | 34.76421 | -114.20839 | 32891 ft | 543 kts | 109° |
| 2026-04-30 19:35 | 34.75227 | -114.11688 | 32899 ft | 551 kts | 101° |
| 2026-04-30 19:36 | 34.74837 | -114.02400 | 32901 ft | 554 kts | 95° |
| 2026-04-30 19:36 | 34.74856 | -113.88225 | 32928 ft | 562 kts | 95° |
| 2026-04-30 19:37 | 34.74766 | -113.78709 | 32952 ft | 562 kts | 96° |
| 2026-04-30 19:37 | 34.74511 | -113.69294 | 32965 ft | 559 kts | 97° |
| 2026-04-30 19:38 | 34.74209 | -113.59823 | 32978 ft | 559 kts | 97° |
| 2026-04-30 19:38 | 34.73928 | -113.50350 | 32990 ft | 560 kts | 97° |
| 2026-04-30 19:39 | 34.73602 | -113.40941 | 33001 ft | 559 kts | 97° |
| 2026-04-30 19:39 | 34.73235 | -113.31467 | 33013 ft | 561 kts | 97° |
| 2026-04-30 19:40 | 34.72874 | -113.21975 | 33023 ft | 562 kts | 97° |
| 2026-04-30 19:40 | 34.72567 | -113.12486 | 33039 ft | 562 kts | 97° |
| 2026-04-30 19:41 | 34.72268 | -113.03025 | 33045 ft | 563 kts | 97° |
| 2026-04-30 19:41 | 34.71923 | -112.93510 | 33056 ft | 563 kts | 97° |
| 2026-04-30 19:42 | 34.71579 | -112.83972 | 33070 ft | 565 kts | 97° |
| 2026-04-30 19:42 | 34.71275 | -112.74466 | 33074 ft | 564 kts | 96° |
| 2026-04-30 19:43 | 34.70950 | -112.64939 | 33083 ft | 564 kts | 97° |
| 2026-04-30 19:44 | 34.70408 | -112.50608 | 33073 ft | 567 kts | 94° |
| 2026-04-30 19:44 | 34.71065 | -112.41020 | 33080 ft | 572 kts | 80° |
| 2026-04-30 19:45 | 34.73106 | -112.31718 | 33077 ft | 573 kts | 71° |
| 2026-04-30 19:45 | 34.75736 | -112.22563 | 33077 ft | 572 kts | 70° |
| 2026-04-30 19:46 | 34.78222 | -112.13350 | 33076 ft | 573 kts | 72° |
| 2026-04-30 19:46 | 34.80386 | -112.04036 | 33071 ft | 573 kts | 75° |
| 2026-04-30 19:47 | 34.82382 | -111.94623 | 33063 ft | 576 kts | 75° |
| 2026-04-30 19:47 | 34.84407 | -111.85163 | 33054 ft | 576 kts | 75° |
| 2026-04-30 19:48 | 34.86501 | -111.75803 | 33052 ft | 576 kts | 74° |
| 2026-04-30 19:48 | 34.88699 | -111.66387 | 33055 ft | 576 kts | 73° |
| 2026-04-30 19:49 | 34.90856 | -111.57052 | 33070 ft | 576 kts | 74° |
| 2026-04-30 19:49 | 34.93969 | -111.42888 | 33089 ft | 576 kts | 75° |
| 2026-04-30 19:50 | 34.95975 | -111.33419 | 33090 ft | 576 kts | 75° |
| 2026-04-30 19:50 | 34.97992 | -111.23951 | 33083 ft | 577 kts | 75° |
| 2026-04-30 19:51 | 35.00014 | -111.14533 | 33072 ft | 577 kts | 75° |
| 2026-04-30 19:51 | 35.02058 | -111.05061 | 33058 ft | 577 kts | 75° |
| 2026-04-30 19:52 | 35.04124 | -110.95583 | 33044 ft | 577 kts | 75° |
| 2026-04-30 19:52 | 35.06199 | -110.86102 | 33029 ft | 578 kts | 75° |
| 2026-04-30 19:53 | 35.08271 | -110.76662 | 33023 ft | 578 kts | 75° |
| 2026-04-30 19:53 | 35.10414 | -110.67192 | 33020 ft | 578 kts | 75° |
| 2026-04-30 19:54 | 35.12463 | -110.57680 | 33023 ft | 578 kts | 76° |
| 2026-04-30 19:54 | 35.14382 | -110.48194 | 33028 ft | 579 kts | 77° |
| 2026-04-30 19:55 | 35.16309 | -110.38602 | 33033 ft | 580 kts | 76° |
| 2026-04-30 19:55 | 35.18286 | -110.29023 | 33041 ft | 580 kts | 76° |
| 2026-04-30 19:56 | 35.20277 | -110.19466 | 33048 ft | 580 kts | 76° |
| 2026-04-30 19:56 | 35.22264 | -110.09966 | 33056 ft | 580 kts | 76° |
| 2026-04-30 19:57 | 35.24297 | -110.00365 | 33064 ft | 581 kts | 75° |
| 2026-04-30 19:57 | 35.26355 | -109.90771 | 33053 ft | 582 kts | 75° |
| 2026-04-30 19:58 | 35.28379 | -109.81221 | 33075 ft | 582 kts | 75° |
| 2026-04-30 19:58 | 35.30379 | -109.71604 | 33082 ft | 582 kts | 76° |
| 2026-04-30 19:59 | 35.32297 | -109.62001 | 33085 ft | 582 kts | 76° |
| 2026-04-30 20:00 | 35.35149 | -109.47539 | 33089 ft | 581 kts | 76° |
| 2026-04-30 20:00 | 35.37043 | -109.37921 | 33095 ft | 581 kts | 76° |
| 2026-04-30 20:01 | 35.39918 | -109.23518 | 33101 ft | 581 kts | 76° |
| 2026-04-30 20:01 | 35.41903 | -109.13879 | 33103 ft | 581 kts | 75° |
| 2026-04-30 20:02 | 35.44847 | -108.99458 | 33103 ft | 580 kts | 76° |
| 2026-04-30 20:03 | 35.47705 | -108.85062 | 33100 ft | 582 kts | 76° |
| 2026-04-30 20:03 | 35.49583 | -108.75392 | 33099 ft | 581 kts | 76° |
| 2026-04-30 20:04 | 35.51400 | -108.65778 | 33098 ft | 581 kts | 76° |
| 2026-04-30 20:05 | 35.54158 | -108.51268 | 33100 ft | 582 kts | 76° |
| 2026-04-30 20:05 | 35.56933 | -108.36725 | 33100 ft | 582 kts | 75° |
| 2026-04-30 20:06 | 35.58837 | -108.27068 | 33100 ft | 582 kts | 75° |
| 2026-04-30 20:06 | 35.60749 | -108.17390 | 33103 ft | 583 kts | 75° |
| 2026-04-30 20:07 | 35.62622 | -108.07746 | 33104 ft | 582 kts | 76° |
| 2026-04-30 20:08 | 35.65363 | -107.93156 | 33105 ft | 582 kts | 76° |
| 2026-04-30 20:08 | 35.67150 | -107.83496 | 33092 ft | 583 kts | 76° |
| 2026-04-30 20:09 | 35.68943 | -107.73752 | 33085 ft | 582 kts | 76° |
| 2026-04-30 20:09 | 35.71578 | -107.59155 | 33079 ft | 583 kts | 76° |
| 2026-04-30 20:10 | 35.74251 | -107.44645 | 33074 ft | 581 kts | 76° |
| 2026-04-30 20:11 | 35.76926 | -107.30083 | 33069 ft | 580 kts | 76° |
| 2026-04-30 20:11 | 35.78754 | -107.20447 | 33064 ft | 580 kts | 75° |
| 2026-04-30 20:12 | 35.81477 | -107.05902 | 33066 ft | 580 kts | 76° |
| 2026-04-30 20:13 | 35.83173 | -106.96226 | 33071 ft | 580 kts | 76° |
| 2026-04-30 20:13 | 35.84567 | -106.88116 | 33073 ft | 580 kts | 76° |
| 2026-04-30 20:14 | 35.86498 | -106.76778 | 33069 ft | 580 kts | 76° |
| 2026-04-30 20:14 | 35.88210 | -106.67047 | 33073 ft | 580 kts | 76° |
| 2026-04-30 20:15 | 35.89950 | -106.57305 | 33079 ft | 580 kts | 75° |
| 2026-04-30 20:15 | 35.91675 | -106.47611 | 33079 ft | 580 kts | 75° |
| 2026-04-30 20:16 | 35.93399 | -106.37920 | 33079 ft | 580 kts | 75° |
| 2026-04-30 20:16 | 35.95124 | -106.28182 | 33079 ft | 581 kts | 75° |
| 2026-04-30 20:17 | 35.96564 | -106.20082 | 33075 ft | 581 kts | 75° |
| 2026-04-30 20:17 | 35.98277 | -106.10323 | 33073 ft | 581 kts | 76° |
| 2026-04-30 20:18 | 35.99910 | -106.00535 | 33082 ft | 581 kts | 78° |
| 2026-04-30 20:18 | 36.00767 | -105.90658 | 33094 ft | 583 kts | 89° |
| 2026-04-30 20:19 | 36.00628 | -105.80653 | 33096 ft | 582 kts | 95° |
| 2026-04-30 20:19 | 36.00186 | -105.70648 | 33079 ft | 582 kts | 94° |
| 2026-04-30 20:20 | 35.99958 | -105.60638 | 33080 ft | 582 kts | 91° |
| 2026-04-30 20:20 | 36.00001 | -105.50687 | 33086 ft | 583 kts | 90° |
| 2026-04-30 20:21 | 36.00154 | -105.40678 | 33090 ft | 582 kts | 89° |
| 2026-04-30 20:21 | 36.00288 | -105.30672 | 33093 ft | 582 kts | 90° |
| 2026-04-30 20:22 | 36.00353 | -105.20663 | 33091 ft | 583 kts | 90° |
| 2026-04-30 20:22 | 36.00379 | -105.10700 | 33089 ft | 583 kts | 90° |
| 2026-04-30 20:23 | 36.00436 | -105.00668 | 33088 ft | 584 kts | 90° |
| 2026-04-30 20:23 | 36.00413 | -104.90610 | 33085 ft | 585 kts | 91° |
| 2026-04-30 20:24 | 36.00314 | -104.80616 | 33082 ft | 585 kts | 91° |
| 2026-04-30 20:24 | 36.00224 | -104.70552 | 33079 ft | 586 kts | 91° |
| 2026-04-30 20:25 | 36.00178 | -104.55397 | 33072 ft | 588 kts | 90° |
| 2026-04-30 20:26 | 36.00138 | -104.40241 | 33048 ft | 589 kts | 90° |
| 2026-04-30 20:26 | 36.00102 | -104.25057 | 33039 ft | 590 kts | 90° |
| 2026-04-30 20:27 | 36.00095 | -104.04797 | 33037 ft | 591 kts | 91° |
| 2026-04-30 20:28 | 36.00108 | -103.84477 | 33037 ft | 591 kts | 89° |
| 2026-04-30 20:30 | 36.00495 | -103.59171 | 33037 ft | 589 kts | 89° |
| 2026-04-30 20:31 | 36.00910 | -103.28866 | 33049 ft | 586 kts | 89° |
| 2026-04-30 20:32 | 36.01230 | -103.03774 | 33052 ft | 584 kts | 89° |
| 2026-04-30 20:33 | 36.01305 | -102.88762 | 33052 ft | 584 kts | 90° |
| 2026-04-30 20:34 | 36.01300 | -102.73744 | 33050 ft | 582 kts | 90° |
| 2026-04-30 20:35 | 36.01380 | -102.58717 | 33049 ft | 582 kts | 90° |
| 2026-04-30 20:35 | 36.01456 | -102.43706 | 33049 ft | 581 kts | 90° |
| 2026-04-30 20:36 | 36.01491 | -102.33766 | 33051 ft | 582 kts | 90° |
| 2026-04-30 20:37 | 36.01638 | -102.18752 | 33060 ft | 582 kts | 90° |
| 2026-04-30 20:37 | 36.01689 | -102.08790 | 33064 ft | 582 kts | 90° |
| 2026-04-30 20:38 | 36.01656 | -101.98788 | 33067 ft | 582 kts | 91° |
| 2026-04-30 20:38 | 36.01588 | -101.88774 | 33068 ft | 582 kts | 91° |
| 2026-04-30 20:39 | 36.01479 | -101.73820 | 33070 ft | 582 kts | 91° |
| 2026-04-30 20:40 | 36.01419 | -101.58878 | 33072 ft | 581 kts | 90° |
| 2026-04-30 20:40 | 36.01433 | -101.48886 | 33071 ft | 580 kts | 90° |
| 2026-04-30 20:41 | 36.01415 | -101.33917 | 33084 ft | 580 kts | 91° |
| 2026-04-30 20:41 | 36.01395 | -101.23938 | 33092 ft | 580 kts | 90° |